Time;durP1;ratioP1;P1;durP2;ratioP2;P2;SDS_P1;SDS_P2;PMS_P1;PMS_P2;Temp;Humidity;BMP_temperature;BMP_pressure;BME280_temperature;BME280_humidity;BME280_pressure;Samples;Min_cycle;Max_cycle;Signal;HPM_P1;HPM_P2
2023/09/18 00:00:49;;;;;;;5.03;4.43;;;21.30;1.00;;;;;;6102665;23;20198;-39
2023/09/18 00:03:17;;;;;;;4.27;3.80;;;21.30;49.40;;;;;;6077774;23;20434;-41
2023/09/18 00:05:43;;;;;;;4.73;4.20;;;21.20;35.90;;;;;;6127347;23;20396;-41
2023/09/18 00:08:09;;;;;;;4.60;4.17;;;21.20;99.90;;;;;;6128504;23;20370;-39
2023/09/18 00:10:35;;;;;;;5.70;4.20;;;21.20;99.90;;;;;;6127813;23;20619;-39
2023/09/18 00:13:01;;;;;;;4.70;4.30;;;21.20;99.90;;;;;;6128042;23;20164;-44
2023/09/18 00:15:26;;;;;;;5.93;4.10;;;21.10;99.90;;;;;;6128074;23;20477;-40
2023/09/18 00:17:52;;;;;;;5.37;4.87;;;21.10;99.90;;;;;;6125258;23;20733;-39
2023/09/18 00:20:18;;;;;;;4.67;4.27;;;21.10;99.90;;;;;;6126149;23;20150;-43
2023/09/18 00:22:44;;;;;;;6.50;4.70;;;21.10;1.00;;;;;;6126354;23;20231;-40
2023/09/18 00:25:10;;;;;;;4.53;4.13;;;21.10;1.00;;;;;;6100716;23;20442;-42
2023/09/18 00:27:36;;;;;;;5.27;4.30;;;21.10;1.00;;;;;;6127182;23;20243;-39
2023/09/18 00:30:03;;;;;;;5.00;4.07;;;21.10;1.00;;;;;;6128036;23;20183;-38
2023/09/18 00:32:29;;;;;;;4.57;4.10;;;21.00;1.00;;;;;;6127496;23;20414;-39
2023/09/18 00:34:55;;;;;;;4.13;3.83;;;21.00;1.00;;;;;;6128558;23;20388;-40
2023/09/18 00:37:20;;;;;;;4.80;4.40;;;21.00;1.00;;;;;;6128169;23;20396;-41
2023/09/18 00:39:46;;;;;;;4.70;4.30;;;21.00;1.00;;;;;;6127988;23;20160;-38
2023/09/18 00:42:16;;;;;;;5.07;4.60;;;21.00;1.00;;;;;;6128002;23;20395;-39
2023/09/18 00:44:41;;;;;;;5.43;4.93;;;21.00;59.80;;;;;;6127857;23;20168;-40
2023/09/18 00:47:11;;;;;;;4.90;4.50;;;21.00;72.30;;;;;;6126640;23;20364;-40
2023/09/18 00:49:39;;;;;;;4.00;3.70;;;21.00;99.90;;;;;;6100544;23;20160;-39
2023/09/18 00:52:05;;;;;;;4.90;4.13;;;21.00;36.30;;;;;;6127116;23;20428;-38
2023/09/18 00:54:31;;;;;;;5.33;3.83;;;20.90;99.90;;;;;;6127681;23;20406;-39
2023/09/18 00:56:57;;;;;;;4.10;3.80;;;20.90;99.90;;;;;;6127714;23;20367;-41
2023/09/18 00:59:23;;;;;;;4.20;3.80;;;20.90;99.90;;;;;;6127245;23;20509;-39
2023/09/18 01:01:49;;;;;;;4.80;4.40;;;20.90;99.90;;;;;;6127414;23;20167;-38
2023/09/18 01:04:19;;;;;;;4.47;4.17;;;20.90;1.00;;;;;;6102383;23;20576;-38
2023/09/18 01:06:45;;;;;;;5.50;5.00;;;20.90;1.00;;;;;;6127769;23;20677;-40
2023/09/18 01:09:14;;;;;;;4.13;3.83;;;20.80;1.00;;;;;;6102006;23;20513;-41
2023/09/18 01:11:48;;;;;;;4.67;4.27;;;20.90;1.00;;;;;;6132909;23;20786;-40
2023/09/18 01:14:17;;;;;;;5.17;4.77;;;20.90;1.00;;;;;;6102095;23;20443;-39
2023/09/18 01:17:01;;;;;;;4.43;4.03;;;20.90;1.00;;;;;;6102199;23;20645;-39
2023/09/18 01:19:46;;;;;;;5.50;4.03;;;20.90;1.00;;;;;;6127409;23;20391;-41
2023/09/18 01:22:16;;;;;;;5.33;4.30;;;20.90;1.00;;;;;;6127132;23;20383;-39
2023/09/18 01:24:43;;;;;;;4.40;4.00;;;21.00;1.00;;;;;;6127172;23;20744;-41
2023/09/18 01:27:12;;;;;;;5.63;4.40;;;21.00;1.00;;;;;;6125968;23;20387;-43
2023/09/18 01:29:38;;;;;;;4.83;4.30;;;21.00;1.00;;;;;;6126628;23;20352;-40
2023/09/18 01:32:04;;;;;;;4.30;3.90;;;21.00;99.90;;;;;;6126978;23;20368;-40
2023/09/18 01:34:33;;;;;;;5.10;4.03;;;21.10;99.90;;;;;;6127336;23;20406;-39
2023/09/18 01:36:59;;;;;;;4.50;3.50;;;21.10;99.90;;;;;;6127394;23;20506;-40
2023/09/18 01:39:30;;;;;;;4.47;4.07;;;21.20;1.00;;;;;;6101989;23;20392;-41
2023/09/18 01:41:58;;;;;;;4.33;3.93;;;21.00;1.00;;;;;;6101539;23;20375;-40
2023/09/18 01:44:23;;;;;;;8.20;4.30;;;21.10;99.90;;;;;;6127818;23;20408;-39
2023/09/18 01:46:51;;;;;;;4.53;4.00;;;21.10;1.00;;;;;;6128209;23;20394;-38
2023/09/18 01:49:33;;;;;;;5.43;3.90;;;21.20;1.00;;;;;;6127107;23;20167;-41
2023/09/18 01:51:58;;;;;;;5.00;3.70;;;21.20;1.00;;;;;;6126928;23;20617;-38
2023/09/18 01:54:25;;;;;;;7.47;3.80;;;21.10;99.90;;;;;;6125494;23;20399;-39
2023/09/18 01:56:51;;;;;;;5.73;3.43;;;21.10;99.90;;;;;;6126788;23;20542;-41
2023/09/18 01:59:17;;;;;;;5.80;4.10;;;21.00;1.00;;;;;;6126574;23;20370;-38
2023/09/18 02:01:44;;;;;;;5.90;3.87;;;20.80;1.00;;;;;;6126640;23;20399;-44
2023/09/18 02:04:09;;;;;;;7.13;3.80;;;20.70;99.90;;;;;;6127727;23;20637;-40
2023/09/18 02:06:35;;;;;;;7.00;3.73;;;20.60;99.90;;;;;;6127012;23;20403;-39
2023/09/18 02:09:01;;;;;;;9.53;3.70;;;20.40;1.00;;;;;;6127483;23;20152;-39
2023/09/18 02:11:27;;;;;;;6.10;3.10;;;20.40;67.90;;;;;;6127599;23;20447;-40
2023/09/18 02:13:53;;;;;;;8.97;3.73;;;20.40;99.90;;;;;;6127581;23;20167;-37
2023/09/18 02:16:22;;;;;;;6.23;3.33;;;20.40;99.90;;;;;;6127092;23;20384;-39
2023/09/18 02:18:49;;;;;;;10.30;3.07;;;20.30;99.90;;;;;;6125888;23;20156;-40
2023/09/18 02:21:21;;;;;;;9.17;3.50;;;20.30;99.90;;;;;;6127290;23;20383;-40
2023/09/18 02:23:53;;;;;;;5.90;3.47;;;20.20;99.90;;;;;;6127805;23;20384;-42
2023/09/18 02:26:20;;;;;;;8.43;3.33;;;20.20;99.90;;;;;;6127739;23;20435;-42
2023/09/18 02:28:45;;;;;;;7.50;3.40;;;20.20;99.90;;;;;;6125684;23;20443;-40
2023/09/18 02:31:11;;;;;;;12.17;3.30;;;20.10;1.00;;;;;;6127246;23;20660;-41
2023/09/18 02:33:38;;;;;;;9.70;3.97;;;20.20;99.90;;;;;;6127668;23;20401;-39
2023/09/18 02:36:04;;;;;;;13.73;4.30;;;20.30;1.00;;;;;;6126448;23;20387;-40
2023/09/18 02:38:32;;;;;;;9.53;3.70;;;20.40;1.00;;;;;;6125603;23;20419;-40
2023/09/18 02:40:58;;;;;;;9.50;3.30;;;20.30;1.00;;;;;;6125582;23;20392;-41
2023/09/18 02:43:24;;;;;;;7.73;3.90;;;20.30;99.90;;;;;;6126167;23;20387;-38
2023/09/18 02:45:50;;;;;;;8.63;2.90;;;20.30;1.00;;;;;;6125542;23;20690;-39
2023/09/18 02:48:16;;;;;;;10.47;3.30;;;20.40;1.00;;;;;;6124656;23;20395;-41
2023/09/18 02:50:42;;;;;;;9.20;3.67;;;20.30;1.00;;;;;;6124171;23;20770;-40
2023/09/18 02:53:11;;;;;;;7.07;3.47;;;20.30;61.50;;;;;;6126659;23;20468;-40
2023/09/18 02:55:37;;;;;;;5.03;2.43;;;20.40;72.70;;;;;;6098359;23;20195;-39
2023/09/18 02:58:03;;;;;;;11.23;4.33;;;20.40;95.50;;;;;;6124889;23;20384;-40
2023/09/18 03:00:28;;;;;;;7.60;3.20;;;20.40;99.90;;;;;;6124113;23;20156;-41
2023/09/18 03:02:54;;;;;;;7.20;3.00;;;20.40;99.90;;;;;;6124572;23;20364;-44
2023/09/18 03:05:19;;;;;;;6.83;3.30;;;20.40;99.90;;;;;;6125313;23;20186;-39
2023/09/18 03:07:45;;;;;;;6.70;3.30;;;20.40;99.90;;;;;;6125195;23;20528;-42
2023/09/18 03:10:13;;;;;;;7.37;3.30;;;20.40;99.90;;;;;;6124830;23;20259;-40
2023/09/18 03:12:40;;;;;;;10.53;3.83;;;20.40;1.00;;;;;;6125161;23;20575;-40
2023/09/18 03:15:06;;;;;;;7.13;3.57;;;20.30;32.70;;;;;;6127034;23;20411;-39
2023/09/18 03:17:32;;;;;;;7.40;3.40;;;20.30;99.90;;;;;;6126941;23;20398;-39
2023/09/18 03:19:57;;;;;;;8.80;3.47;;;20.20;99.90;;;;;;6126656;23;20395;-38
2023/09/18 03:22:23;;;;;;;8.07;3.10;;;20.20;99.90;;;;;;6128365;23;20171;-39
2023/09/18 03:24:49;;;;;;;7.10;3.27;;;20.10;99.90;;;;;;6128163;23;20168;-39
2023/09/18 03:27:14;;;;;;;6.70;3.50;;;20.10;99.90;;;;;;6127991;23;20215;-38
2023/09/18 03:29:40;;;;;;;6.10;2.90;;;20.20;99.90;;;;;;6128384;23;20175;-38
2023/09/18 03:32:06;;;;;;;10.03;3.10;;;20.20;99.90;;;;;;6128941;23;20487;-40
2023/09/18 03:34:31;;;;;;;7.20;3.50;;;20.20;1.00;;;;;;6128699;23;20332;-40
2023/09/18 03:36:57;;;;;;;10.40;3.97;;;20.20;1.00;;;;;;6127336;23;20236;-40
2023/09/18 03:39:22;;;;;;;4.70;3.10;;;20.20;1.00;;;;;;6127647;23;20136;-44
2023/09/18 03:41:48;;;;;;;9.67;3.10;;;20.00;99.90;;;;;;6128351;23;20176;-39
2023/09/18 03:44:14;;;;;;;8.27;3.47;;;20.00;99.90;;;;;;6127351;23;20160;-40
2023/09/18 03:46:40;;;;;;;11.40;2.80;;;19.90;99.90;;;;;;6127178;23;20520;-43
2023/09/18 03:49:06;;;;;;;7.67;3.27;;;19.90;99.90;;;;;;6126615;23;20550;-41
2023/09/18 03:51:32;;;;;;;5.90;3.27;;;19.90;78.20;;;;;;6127211;23;20211;-38
2023/09/18 03:53:57;;;;;;;9.00;2.83;;;19.80;93.10;;;;;;6126682;23;20655;-38
2023/09/18 03:56:23;;;;;;;5.20;3.20;;;19.80;1.80;;;;;;6127812;23;20156;-43
2023/09/18 03:58:52;;;;;;;4.93;3.20;;;19.80;27.50;;;;;;6128208;23;20156;-41
2023/09/18 04:01:17;;;;;;;6.80;3.47;;;19.80;99.90;;;;;;6125604;23;20183;-39
2023/09/18 04:03:43;;;;;;;5.97;3.00;;;19.90;99.90;;;;;;6124297;23;20360;-40
2023/09/18 04:06:09;;;;;;;7.00;3.20;;;19.90;92.70;;;;;;6123270;23;20187;-38
2023/09/18 04:08:34;;;;;;;11.37;3.77;;;19.90;99.90;;;;;;6125936;23;20159;-37
2023/09/18 04:11:00;;;;;;;9.00;3.00;;;19.90;1.00;;;;;;6124104;23;20152;-39
2023/09/18 04:13:26;;;;;;;6.17;3.03;;;19.90;50.30;;;;;;6124867;23;20167;-38
2023/09/18 04:15:56;;;;;;;7.63;3.53;;;19.90;99.90;;;;;;6125521;23;20137;-40
2023/09/18 04:18:22;;;;;;;8.57;3.47;;;19.90;99.90;;;;;;6125319;23;20161;-40
2023/09/18 04:20:50;;;;;;;5.83;3.83;;;19.90;99.90;;;;;;6126287;23;20669;-40
2023/09/18 04:23:19;;;;;;;6.30;3.70;;;20.00;99.90;;;;;;6124113;23;20791;-38
2023/09/18 04:25:48;;;;;;;7.50;3.53;;;20.00;84.60;;;;;;6126240;23;20451;-38
2023/09/18 04:28:18;;;;;;;5.97;3.33;;;20.10;99.90;;;;;;6101855;23;20384;-40
2023/09/18 04:30:44;;;;;;;8.60;3.07;;;20.10;18.70;;;;;;6127584;23;20427;-40
2023/09/18 04:33:12;;;;;;;6.40;3.43;;;20.20;1.00;;;;;;6126249;23;20352;-39
2023/09/18 04:35:39;;;;;;;8.87;3.13;;;20.20;1.00;;;;;;6101168;23;20391;-40
2023/09/18 04:38:06;;;;;;;4.83;2.87;;;20.30;1.00;;;;;;6125771;23;20399;-41
2023/09/18 04:40:32;;;;;;;6.33;3.33;;;20.30;1.00;;;;;;6126023;23;20384;-38
2023/09/18 04:43:01;;;;;;;8.70;3.70;;;20.30;1.00;;;;;;6098217;23;20747;-39
2023/09/18 04:45:27;;;;;;;4.73;2.53;;;20.30;1.00;;;;;;6124048;23;20416;-38
2023/09/18 04:47:56;;;;;;;4.67;3.30;;;20.40;1.00;;;;;;6124772;23;20541;-40
2023/09/18 04:50:22;;;;;;;6.10;3.23;;;20.40;1.00;;;;;;6124880;23;20380;-42
2023/09/18 04:52:47;;;;;;;5.27;2.90;;;20.40;4.90;;;;;;6124246;23;20438;-40
2023/09/18 04:55:14;;;;;;;6.57;3.13;;;20.40;50.30;;;;;;6125185;23;20223;-39
2023/09/18 04:57:39;;;;;;;5.87;3.10;;;20.40;99.90;;;;;;6122431;23;20136;-39
2023/09/18 05:00:09;;;;;;;4.87;3.10;;;20.40;99.90;;;;;;6120735;23;20371;-41
2023/09/18 05:02:35;;;;;;;7.13;3.93;;;20.40;1.00;;;;;;6120391;23;20260;-42
2023/09/18 05:05:03;;;;;;;5.40;3.50;;;20.40;1.00;;;;;;6123966;23;20458;-41
2023/09/18 05:07:28;;;;;;;7.73;3.17;;;20.40;1.00;;;;;;6097371;23;20411;-40
2023/09/18 05:09:54;;;;;;;6.83;2.70;;;20.40;1.00;;;;;;6122119;23;20423;-41
2023/09/18 05:12:19;;;;;;;7.43;2.70;;;20.40;16.70;;;;;;6126915;23;20183;-37
2023/09/18 05:14:45;;;;;;;5.87;2.73;;;20.40;92.30;;;;;;6121803;23;20429;-39
2023/09/18 05:17:14;;;;;;;7.80;4.20;;;20.30;87.60;;;;;;6095373;23;20168;-37
2023/09/18 05:19:40;;;;;;;8.27;2.80;;;20.40;83.80;;;;;;6116039;23;20152;-39
2023/09/18 05:22:07;;;;;;;7.30;3.23;;;20.40;1.00;;;;;;6117736;23;20398;-37
2023/09/18 05:24:33;;;;;;;6.60;3.10;;;20.40;1.00;;;;;;6120276;23;20408;-38
2023/09/18 05:26:59;;;;;;;4.93;2.63;;;20.30;1.00;;;;;;6096330;23;20391;-39
2023/09/18 05:29:25;;;;;;;4.17;2.67;;;20.30;1.00;;;;;;6123374;23;20151;-40
2023/09/18 05:31:52;;;;;;;6.27;2.73;;;20.30;52.90;;;;;;6120517;23;20155;-40
2023/09/18 05:34:19;;;;;;;4.77;2.13;;;20.30;29.80;;;;;;6123550;23;20383;-38
2023/09/18 05:36:46;;;;;;;3.50;2.47;;;20.30;15.10;;;;;;6096591;23;20451;-39
2023/09/18 05:39:12;;;;;;;8.23;3.07;;;20.30;19.00;;;;;;6095048;23;20360;-41
2023/09/18 05:41:40;;;;;;;5.37;3.00;;;20.20;99.90;;;;;;6123512;23;20413;-41
2023/09/18 05:44:07;;;;;;;6.70;3.07;;;20.20;99.90;;;;;;6096493;23;20913;-40
2023/09/18 05:46:35;;;;;;;7.70;3.33;;;20.20;99.60;;;;;;6098286;23;20435;-38
2023/09/18 05:49:01;;;;;;;2.80;2.43;;;20.20;99.90;;;;;;6124861;23;20394;-38
2023/09/18 05:51:27;;;;;;;4.30;2.90;;;20.10;99.90;;;;;;6097678;23;20376;-38
2023/09/18 05:53:52;;;;;;;6.67;2.80;;;20.00;99.90;;;;;;6123698;23;20410;-41
2023/09/18 05:56:18;;;;;;;10.70;3.23;;;20.00;99.90;;;;;;6124428;23;20466;-41
2023/09/18 05:58:44;;;;;;;4.53;2.60;;;20.10;99.90;;;;;;6123950;23;20241;-38
2023/09/18 06:01:10;;;;;;;6.17;2.90;;;20.10;99.90;;;;;;6124270;23;20183;-39
2023/09/18 06:03:35;;;;;;;6.53;2.80;;;20.10;99.90;;;;;;6124563;23;20148;-40
2023/09/18 06:06:05;;;;;;;7.50;2.57;;;20.10;99.90;;;;;;6125755;23;20199;-40
2023/09/18 06:08:31;;;;;;;6.33;2.43;;;20.10;99.90;;;;;;6122768;23;20383;-39
2023/09/18 06:10:57;;;;;;;8.37;2.90;;;20.20;99.90;;;;;;6122565;23;20390;-38
2023/09/18 06:13:25;;;;;;;4.53;2.90;;;20.20;99.90;;;;;;6096629;23;20250;-40
2023/09/18 06:15:52;;;;;;;4.80;2.87;;;20.10;99.90;;;;;;6122580;23;20400;-38
2023/09/18 06:18:24;;;;;;;7.50;3.27;;;20.10;99.90;;;;;;6123117;23;20359;-38
2023/09/18 06:20:50;;;;;;;6.00;2.80;;;20.00;1.00;;;;;;6124674;23;20392;-38
2023/09/18 06:23:16;;;;;;;8.90;3.40;;;20.00;1.00;;;;;;6099323;23;20395;-40
2023/09/18 06:25:41;;;;;;;5.80;3.00;;;20.00;1.00;;;;;;6125986;23;20477;-38
2023/09/18 06:28:07;;;;;;;5.13;2.60;;;19.90;1.00;;;;;;6125848;23;20152;-38
2023/09/18 06:30:34;;;;;;;4.50;2.80;;;19.80;28.80;;;;;;6125848;23;20141;-39
2023/09/18 06:33:03;;;;;;;4.10;2.40;;;19.60;99.90;;;;;;6126631;23;20210;-38
2023/09/18 06:35:29;;;;;;;6.70;2.77;;;19.60;99.90;;;;;;6099189;23;20387;-38
2023/09/18 06:37:58;;;;;;;4.50;2.60;;;19.60;99.90;;;;;;6124144;23;20478;-39
2023/09/18 06:40:25;;;;;;;7.80;2.87;;;19.70;99.90;;;;;;6124729;23;20391;-39
2023/09/18 06:42:51;;;;;;;7.00;2.60;;;19.70;99.90;;;;;;6099092;23;20467;-41
2023/09/18 06:45:17;;;;;;;6.90;2.57;;;19.60;99.90;;;;;;6099677;23;20881;-40
2023/09/18 06:47:43;;;;;;;7.83;3.43;;;19.60;99.90;;;;;;6100505;23;20391;-38
2023/09/18 06:50:09;;;;;;;5.70;2.53;;;19.50;99.90;;;;;;6077706;23;20494;-37
2023/09/18 06:52:35;;;;;;;5.50;2.13;;;19.50;99.90;;;;;;6126572;23;20204;-41
2023/09/18 06:55:01;;;;;;;6.87;2.70;;;19.50;99.90;;;;;;6126930;23;20387;-40
2023/09/18 06:57:27;;;;;;;5.57;2.30;;;19.50;99.90;;;;;;6125004;23;20560;-38
2023/09/18 06:59:53;;;;;;;7.40;3.30;;;19.50;99.90;;;;;;6125648;23;20271;-38
2023/09/18 07:02:18;;;;;;;5.07;2.80;;;19.50;99.90;;;;;;6126962;23;20821;-40
2023/09/18 07:04:47;;;;;;;5.20;2.30;;;19.50;99.90;;;;;;6101238;23;20214;-38
2023/09/18 07:07:17;;;;;;;5.50;2.77;;;19.60;1.00;;;;;;6127368;23;20160;-40
2023/09/18 07:09:43;;;;;;;6.53;2.90;;;19.50;50.50;;;;;;6101854;23;20494;-37
2023/09/18 07:12:10;;;;;;;4.07;1.93;;;19.60;1.00;;;;;;6130607;23;20419;-41
2023/09/18 07:14:37;;;;;;;3.20;2.40;;;19.60;1.00;;;;;;6129328;23;20583;-40
2023/09/18 07:17:04;;;;;;;4.10;1.80;;;19.70;1.00;;;;;;6102448;23;20387;-39
2023/09/18 07:19:30;;;;;;;4.43;1.87;;;19.70;99.90;;;;;;6127804;23;20489;-41
2023/09/18 07:21:55;;;;;;;5.20;2.37;;;19.70;99.90;;;;;;6127053;23;20398;-39
2023/09/18 07:24:21;;;;;;;5.83;2.40;;;19.70;1.00;;;;;;6127167;23;20206;-38
2023/09/18 07:26:48;;;;;;;3.90;2.00;;;19.70;99.90;;;;;;6128154;23;20171;-39
2023/09/18 07:29:16;;;;;;;4.53;2.33;;;19.70;99.90;;;;;;6126899;23;20479;-40
2023/09/18 07:31:45;;;;;;;4.33;2.07;;;19.70;99.90;;;;;;6127017;23;20384;-40
2023/09/18 07:34:11;;;;;;;2.90;1.67;;;19.80;99.90;;;;;;6101346;23;20946;-38
2023/09/18 07:36:37;;;;;;;3.50;1.50;;;19.80;99.90;;;;;;6126173;23;20378;-39
2023/09/18 07:39:04;;;;;;;4.90;1.97;;;19.90;99.90;;;;;;6076917;23;20772;-42
2023/09/18 07:41:30;;;;;;;4.37;1.40;;;19.90;99.90;;;;;;6127862;23;20152;-39
2023/09/18 07:43:59;;;;;;;2.27;1.50;;;19.80;99.90;;;;;;6127267;23;20667;-40
2023/09/18 07:46:25;;;;;;;3.47;1.57;;;19.80;1.00;;;;;;6126311;23;20474;-39
2023/09/18 07:48:50;;;;;;;5.20;1.80;;;19.80;1.00;;;;;;6126788;23;20775;-39
2023/09/18 07:51:16;;;;;;;4.33;1.40;;;19.80;99.90;;;;;;6126131;23;20402;-39
2023/09/18 07:53:42;;;;;;;2.80;2.00;;;19.90;99.90;;;;;;6125510;23;20244;-39
2023/09/18 07:56:08;;;;;;;4.10;2.10;;;19.90;99.90;;;;;;6125018;23;20157;-41
2023/09/18 07:58:38;;;;;;;7.40;1.80;;;20.00;99.90;;;;;;6127056;23;20384;-38
2023/09/18 08:01:05;;;;;;;3.20;1.60;;;20.00;99.90;;;;;;6126190;23;20388;-39
2023/09/18 08:03:31;;;;;;;2.77;1.63;;;20.00;99.90;;;;;;6125438;23;20382;-39
2023/09/18 08:05:57;;;;;;;6.53;1.60;;;19.90;99.90;;;;;;6126298;23;20505;-39
2023/09/18 08:08:24;;;;;;;2.77;1.70;;;19.80;99.90;;;;;;6126550;23;20482;-39
2023/09/18 08:10:50;;;;;;;3.93;1.53;;;19.80;99.90;;;;;;6099259;23;20735;-39
2023/09/18 08:13:17;;;;;;;5.27;1.70;;;19.70;99.90;;;;;;6118991;23;20558;-38
2023/09/18 08:15:43;;;;;;;4.80;1.70;;;19.70;99.90;;;;;;6125821;23;20378;-38
2023/09/18 08:18:10;;;;;;;12.33;1.77;;;19.70;99.90;;;;;;6125095;23;20444;-39
2023/09/18 08:20:39;;;;;;;1.90;1.27;;;19.70;1.00;;;;;;6122713;23;20395;-37
2023/09/18 08:23:05;;;;;;;5.13;1.80;;;19.60;99.90;;;;;;6125897;23;20671;-38
2023/09/18 08:25:32;;;;;;;3.13;1.43;;;19.50;1.00;;;;;;6124884;23;20423;-37
2023/09/18 08:27:57;;;;;;;3.80;1.30;;;19.40;1.00;;;;;;6123843;23;20160;-39
2023/09/18 08:30:23;;;;;;;2.73;1.40;;;19.20;99.90;;;;;;6124670;23;20359;-38
2023/09/18 08:32:49;;;;;;;1.83;1.10;;;19.20;99.90;;;;;;6123968;23;20539;-37
2023/09/18 08:35:14;;;;;;;3.47;1.73;;;19.10;99.90;;;;;;6126857;23;20531;-40
2023/09/18 08:37:43;;;;;;;2.30;1.60;;;19.00;99.90;;;;;;6123240;23;20167;-37
2023/09/18 08:40:16;;;;;;;3.50;2.10;;;18.80;1.00;;;;;;6125139;23;20152;-38
2023/09/18 08:42:46;;;;;;;2.60;1.20;;;18.80;1.00;;;;;;6125936;23;20451;-36
2023/09/18 08:45:21;;;;;;;5.13;1.80;;;18.60;1.00;;;;;;6128051;23;20423;-38
2023/09/18 08:47:47;;;;;;;3.30;1.80;;;18.60;1.00;;;;;;6126576;23;20391;-38
2023/09/18 08:50:12;;;;;;;2.40;1.60;;;18.60;1.00;;;;;;6126335;23;20430;-37
2023/09/18 08:52:38;;;;;;;4.57;2.23;;;18.60;1.00;;;;;;6127424;23;20223;-36
2023/09/18 08:55:05;;;;;;;3.93;1.30;;;18.60;1.00;;;;;;6125030;23;20195;-37
2023/09/18 08:57:31;;;;;;;5.60;1.43;;;18.50;1.00;;;;;;6126852;23;20379;-38
2023/09/18 09:00:05;;;;;;;2.33;1.30;;;18.50;1.00;;;;;;6127586;23;20395;-36
2023/09/18 09:02:31;;;;;;;2.80;1.77;;;18.50;29.80;;;;;;6124969;23;20383;-36
2023/09/18 09:04:56;;;;;;;3.27;1.90;;;18.30;99.90;;;;;;6124820;23;20473;-36
2023/09/18 09:07:22;;;;;;;3.30;1.50;;;18.20;99.90;;;;;;6127204;23;20152;-37
2023/09/18 09:09:47;;;;;;;3.40;1.53;;;18.20;99.90;;;;;;6126268;23;20129;-36
2023/09/18 09:12:13;;;;;;;2.57;1.43;;;18.20;99.90;;;;;;6126281;23;20186;-36
2023/09/18 09:14:39;;;;;;;5.43;2.10;;;18.20;99.90;;;;;;6125945;23;20164;-36
2023/09/18 09:17:06;;;;;;;5.80;1.97;;;18.30;99.90;;;;;;6127308;23;20156;-37
2023/09/18 09:19:36;;;;;;;4.03;2.00;;;18.40;99.90;;;;;;6128064;23;20160;-38
2023/09/18 09:22:02;;;;;;;5.57;2.30;;;18.40;99.90;;;;;;6127616;23;20491;-36
2023/09/18 09:24:41;;;;;;;5.00;1.93;;;18.40;99.90;;;;;;6126027;23;20360;-37
2023/09/18 09:27:08;;;;;;;5.03;1.70;;;18.40;99.90;;;;;;6125846;23;20425;-37
2023/09/18 09:29:34;;;;;;;3.90;1.40;;;18.50;99.90;;;;;;6127006;23;20502;-38
2023/09/18 09:32:33;;;;;;;5.10;1.93;;;18.50;99.90;;;;;;6126775;23;20450;-36
2023/09/18 09:35:06;;;;;;;5.00;2.33;;;18.60;99.90;;;;;;6064288;23;20675;-38
2023/09/18 09:37:32;;;;;;;4.00;2.07;;;18.60;99.90;;;;;;6102032;23;20799;-36
2023/09/18 09:40:08;;;;;;;6.10;2.27;;;18.70;99.90;;;;;;6102247;23;20406;-38
2023/09/18 09:42:41;;;;;;;3.77;1.77;;;18.80;99.90;;;;;;6129390;23;20140;-38
2023/09/18 09:45:17;;;;;;;4.10;1.60;;;18.90;99.90;;;;;;6130636;23;20430;-39
2023/09/18 09:47:44;;;;;;;4.70;1.90;;;19.00;99.90;;;;;;6130935;23;20387;-37
2023/09/18 09:50:15;;;;;;;3.03;1.90;;;19.10;99.90;;;;;;6128255;23;20442;-37
2023/09/18 09:52:48;;;;;;;3.97;2.17;;;19.20;99.90;;;;;;6126728;23;20482;-36
2023/09/18 09:55:24;;;;;;;3.83;1.57;;;19.30;99.90;;;;;;6128506;23;20471;-37
2023/09/18 09:57:53;;;;;;;2.60;1.57;;;19.50;58.40;;;;;;6127935;23;20367;-38
2023/09/18 10:00:26;;;;;;;3.47;1.87;;;19.70;16.80;;;;;;6127260;23;20448;-36
2023/09/18 10:02:58;;;;;;;4.43;1.90;;;19.70;10.00;;;;;;6125782;23;20430;-37
2023/09/18 10:05:26;;;;;;;4.10;2.10;;;19.80;1.00;;;;;;6126144;23;20435;-37
2023/09/18 10:07:52;;;;;;;3.70;2.17;;;19.70;1.00;;;;;;6125471;23;20759;-38
2023/09/18 10:10:18;;;;;;;4.77;1.80;;;19.60;1.00;;;;;;6125286;23;20399;-37
2023/09/18 10:12:45;;;;;;;2.67;1.77;;;19.40;1.00;;;;;;6124509;23;20515;-37
2023/09/18 10:15:12;;;;;;;5.07;2.17;;;19.30;26.70;;;;;;6126375;23;20144;-38
2023/09/18 10:17:44;;;;;;;3.10;2.00;;;19.20;48.00;;;;;;6125999;23;20637;-37
2023/09/18 10:20:21;;;;;;;5.10;2.70;;;19.10;99.10;;;;;;6101173;23;20399;-37
2023/09/18 10:22:49;;;;;;;5.33;2.33;;;19.00;99.90;;;;;;6127822;23;20399;-37
2023/09/18 10:25:22;;;;;;;5.27;2.70;;;19.10;99.90;;;;;;6125769;23;20427;-37
2023/09/18 10:27:49;;;;;;;5.23;1.87;;;19.10;99.90;;;;;;6127985;23;20756;-37
2023/09/18 10:30:19;;;;;;;4.33;1.60;;;19.10;99.90;;;;;;6128276;23;20775;-39
2023/09/18 10:32:48;;;;;;;4.07;2.40;;;19.20;99.90;;;;;;6127046;23;20641;-37
2023/09/18 10:35:14;;;;;;;6.50;2.03;;;19.10;99.90;;;;;;6124968;23;20419;-38
2023/09/18 10:37:42;;;;;;;5.97;3.57;;;19.10;99.90;;;;;;6124065;23;20380;-46
2023/09/18 10:40:11;;;;;;;2.30;1.70;;;19.10;99.90;;;;;;6124416;23;20394;-45
2023/09/18 10:42:39;;;;;;;5.10;2.17;;;19.10;99.90;;;;;;6125497;23;20390;-45
2023/09/18 10:45:07;;;;;;;6.73;2.00;;;19.10;99.90;;;;;;6125318;23;20419;-46
2023/09/18 10:47:33;;;;;;;4.40;2.20;;;19.10;99.90;;;;;;6100148;23;20430;-45
2023/09/18 10:49:59;;;;;;;4.73;2.53;;;19.20;99.90;;;;;;6100807;23;20387;-44
2023/09/18 10:52:24;;;;;;;4.00;1.90;;;19.20;90.00;;;;;;6101277;23;20380;-45
2023/09/18 10:54:51;;;;;;;4.43;1.90;;;19.10;23.70;;;;;;6127853;23;20360;-45
2023/09/18 10:57:16;;;;;;;7.47;2.50;;;19.10;37.80;;;;;;6126262;23;20144;-45
2023/09/18 10:59:46;;;;;;;5.90;1.93;;;19.10;24.30;;;;;;6127220;23;20729;-44
2023/09/18 11:02:16;;;;;;;2.00;1.63;;;19.00;44.30;;;;;;6126856;23;20561;-44
2023/09/18 11:04:42;;;;;;;2.80;2.27;;;19.00;48.20;;;;;;6099617;23;21004;-45
2023/09/18 11:07:09;;;;;;;3.50;1.97;;;19.00;99.90;;;;;;6127231;23;20379;-45
2023/09/18 11:09:45;;;;;;;3.70;2.07;;;19.00;99.90;;;;;;6100363;23;20422;-45
2023/09/18 11:12:11;;;;;;;2.70;1.50;;;19.00;59.80;;;;;;6125314;23;20423;-45
2023/09/18 11:14:56;;;;;;;5.97;2.33;;;19.00;99.60;;;;;;6126681;23;20400;-45
2023/09/18 11:17:33;;;;;;;3.77;1.60;;;19.10;91.60;;;;;;6126471;23;20434;-45
2023/09/18 11:20:09;;;;;;;5.23;2.47;;;19.10;99.70;;;;;;6125983;23;20402;-45
2023/09/18 11:22:38;;;;;;;4.27;1.70;;;19.00;55.90;;;;;;6125796;23;20386;-45
2023/09/18 11:25:35;;;;;;;3.50;2.43;;;19.00;75.10;;;;;;6125936;23;20490;-45
2023/09/18 11:28:02;;;;;;;2.13;1.40;;;19.00;67.80;;;;;;6124648;23;20395;-44
2023/09/18 11:30:32;;;;;;;4.03;1.63;;;19.00;21.60;;;;;;6123634;23;20349;-44
2023/09/18 11:32:58;;;;;;;3.00;1.83;;;19.10;24.50;;;;;;6096742;23;20419;-45
2023/09/18 11:35:25;;;;;;;4.90;2.33;;;19.20;1.00;;;;;;6122982;23;20791;-45
2023/09/18 11:38:08;;;;;;;3.27;1.67;;;19.30;1.00;;;;;;6125105;23;20156;-45
2023/09/18 11:40:40;;;;;;;2.40;1.47;;;19.40;1.00;;;;;;6125435;23;20383;-45
2023/09/18 11:43:25;;;;;;;2.00;1.67;;;19.40;1.00;;;;;;6124589;23;20799;-45
2023/09/18 11:45:51;;;;;;;1.70;1.33;;;19.50;1.00;;;;;;6123781;23;20403;-45
2023/09/18 11:48:18;;;;;;;2.00;1.40;;;19.50;99.90;;;;;;6123902;23;20957;-45
2023/09/18 11:50:44;;;;;;;2.53;1.17;;;19.50;99.90;;;;;;6123275;23;20402;-45
2023/09/18 11:53:15;;;;;;;3.67;1.77;;;19.50;1.00;;;;;;6124576;23;20384;-44
2023/09/18 11:55:41;;;;;;;2.37;1.63;;;19.60;1.00;;;;;;6124827;23;20557;-45
2023/09/18 11:58:09;;;;;;;2.73;1.33;;;19.60;99.90;;;;;;6097368;23;20430;-45
2023/09/18 12:00:35;;;;;;;3.37;1.40;;;19.60;99.90;;;;;;6123634;23;20551;-46
2023/09/18 12:03:25;;;;;;;2.37;1.30;;;19.50;28.60;;;;;;6125168;23;20486;-45
2023/09/18 12:06:01;;;;;;;3.10;1.70;;;19.60;26.10;;;;;;6126508;23;20807;-45
2023/09/18 12:08:30;;;;;;;1.53;1.07;;;19.70;99.90;;;;;;6127153;23;20620;-44
2023/09/18 12:10:56;;;;;;;3.23;1.67;;;19.70;1.00;;;;;;6101785;23;20832;-45
2023/09/18 12:13:25;;;;;;;4.37;1.63;;;19.70;2.40;;;;;;6126237;23;20530;-45
2023/09/18 12:15:58;;;;;;;2.63;1.70;;;19.80;4.70;;;;;;6126392;23;20360;-45
2023/09/18 12:18:25;;;;;;;2.80;1.30;;;19.90;1.00;;;;;;6125940;23;20375;-45
2023/09/18 12:20:55;;;;;;;2.90;1.73;;;19.90;1.00;;;;;;6098053;23;20396;-45
2023/09/18 12:23:24;;;;;;;2.47;1.70;;;19.90;1.00;;;;;;6098026;23;20398;-45
2023/09/18 12:25:56;;;;;;;3.13;1.60;;;19.90;1.00;;;;;;6097060;23;20427;-45
2023/09/18 12:28:22;;;;;;;2.20;1.33;;;20.00;1.00;;;;;;6123077;23;20794;-45
2023/09/18 12:30:50;;;;;;;3.30;1.40;;;20.10;1.00;;;;;;6122553;23;20352;-45
2023/09/18 12:33:16;;;;;;;3.00;1.33;;;20.10;99.90;;;;;;6123873;23;20129;-45
2023/09/18 12:35:42;;;;;;;2.73;1.50;;;20.40;44.50;;;;;;6124480;23;20398;-45
2023/09/18 12:38:15;;;;;;;3.10;1.43;;;20.60;99.90;;;;;;6123514;23;20652;-45
2023/09/18 12:40:41;;;;;;;2.00;1.23;;;21.30;99.90;;;;;;6097021;23;20158;-45
2023/09/18 12:43:07;;;;;;;3.53;1.83;;;22.10;94.60;;;;;;6124647;23;20414;-45
2023/09/18 12:45:34;;;;;;;2.60;1.40;;;22.30;1.00;;;;;;6123461;23;21000;-45
2023/09/18 12:48:00;;;;;;;2.10;1.33;;;22.50;1.00;;;;;;6098286;23;20159;-45
2023/09/18 12:50:26;;;;;;;2.37;1.17;;;22.60;99.90;;;;;;6126461;23;20388;-45
2023/09/18 12:52:52;;;;;;;4.40;2.00;;;22.60;1.00;;;;;;6126648;23;20392;-45